sensor_id;sensor_type;location;lat;lon;timestamp;pressure;altitude;pressure_sealevel;temperature;humidity
40315;BME280;26021;45.640;11.302;2022-12-07T00:00:29;98524.41;;;2.33;100.00
40315;BME280;26021;45.640;11.302;2022-12-07T00:02:55;98527.69;;;2.25;100.00
40315;BME280;26021;45.640;11.302;2022-12-07T00:05:20;98518.16;;;2.34;100.00
40315;BME280;26021;45.640;11.302;2022-12-07T00:07:45;98515.09;;;2.38;100.00
40315;BME280;26021;45.640;11.302;2022-12-07T00:10:11;98528.16;;;2.40;100.00
40315;BME280;26021;45.640;11.302;2022-12-07T00:12:36;98516.53;;;2.21;100.00
40315;BME280;26021;45.640;11.302;2022-12-07T00:15:02;98509.34;;;2.23;100.00
40315;BME280;26021;45.640;11.302;2022-12-07T00:17:28;98506.41;;;2.57;100.00
40315;BME280;26021;45.640;11.302;2022-12-07T00:19:53;98506.09;;;2.41;100.00
40315;BME280;26021;45.640;11.302;2022-12-07T00:22:18;98510.53;;;2.40;100.00
40315;BME280;26021;45.640;11.302;2022-12-07T00:24:44;98511.91;;;2.35;100.00
40315;BME280;26021;45.640;11.302;2022-12-07T00:27:09;98511.88;;;2.25;100.00
40315;BME280;26021;45.640;11.302;2022-12-07T00:29:35;98503.28;;;2.33;100.00
40315;BME280;26021;45.640;11.302;2022-12-07T00:32:02;98503.69;;;2.28;100.00
40315;BME280;26021;45.640;11.302;2022-12-07T00:34:28;98511.34;;;2.31;100.00
40315;BME280;26021;45.640;11.302;2022-12-07T00:36:53;98497.69;;;2.26;100.00
40315;BME280;26021;45.640;11.302;2022-12-07T00:39:18;98467.78;;;2.16;100.00
40315;BME280;26021;45.640;11.302;2022-12-07T00:41:44;98505.81;;;2.44;100.00
40315;BME280;26021;45.640;11.302;2022-12-07T00:44:09;98498.69;;;2.35;100.00
40315;BME280;26021;45.640;11.302;2022-12-07T00:46:35;98505.94;;;2.12;100.00
40315;BME280;26021;45.640;11.302;2022-12-07T00:49:00;98472.28;;;1.95;100.00
40315;BME280;26021;45.640;11.302;2022-12-07T00:51:26;98498.88;;;2.12;100.00
40315;BME280;26021;45.640;11.302;2022-12-07T00:53:52;98504.19;;;2.22;100.00
40315;BME280;26021;45.640;11.302;2022-12-07T00:58:50;98494.53;;;2.32;100.00
40315;BME280;26021;45.640;11.302;2022-12-07T01:01:15;98504.38;;;2.30;100.00
40315;BME280;26021;45.640;11.302;2022-12-07T01:03:40;98503.19;;;2.13;100.00
40315;BME280;26021;45.640;11.302;2022-12-07T01:06:06;98471.56;;;1.92;100.00
40315;BME280;26021;45.640;11.302;2022-12-07T01:08:31;98483.28;;;2.30;100.00
40315;BME280;26021;45.640;11.302;2022-12-07T01:11:03;98492.69;;;2.23;100.00
40315;BME280;26021;45.640;11.302;2022-12-07T01:13:30;98453.59;;;2.07;100.00
40315;BME280;26021;45.640;11.302;2022-12-07T01:16:00;98494.22;;;2.26;100.00
40315;BME280;26021;45.640;11.302;2022-12-07T01:18:27;98488.97;;;2.35;100.00
40315;BME280;26021;45.640;11.302;2022-12-07T01:21:03;98490.63;;;2.27;100.00
40315;BME280;26021;45.640;11.302;2022-12-07T01:23:29;98486.22;;;2.37;100.00
40315;BME280;26021;45.640;11.302;2022-12-07T01:25:59;98482.25;;;2.21;100.00
40315;BME280;26021;45.640;11.302;2022-12-07T01:28:26;98486.75;;;2.31;100.00
40315;BME280;26021;45.640;11.302;2022-12-07T01:30:59;98482.31;;;2.31;100.00
40315;BME280;26021;45.640;11.302;2022-12-07T01:33:28;98351.53;;;1.58;100.00
40315;BME280;26021;45.640;11.302;2022-12-07T01:35:54;98472.97;;;2.27;100.00
40315;BME280;26021;45.640;11.302;2022-12-07T01:38:19;98490.75;;;2.25;100.00
40315;BME280;26021;45.640;11.302;2022-12-07T01:40:45;98473.31;;;2.13;100.00
40315;BME280;26021;45.640;11.302;2022-12-07T01:43:16;98487.22;;;2.15;100.00
40315;BME280;26021;45.640;11.302;2022-12-07T01:45:44;98482.94;;;1.93;100.00
40315;BME280;26021;45.640;11.302;2022-12-07T01:48:11;98464.97;;;2.08;100.00
40315;BME280;26021;45.640;11.302;2022-12-07T01:50:38;98484.56;;;2.15;100.00
40315;BME280;26021;45.640;11.302;2022-12-07T01:53:06;98470.22;;;1.98;100.00
40315;BME280;26021;45.640;11.302;2022-12-07T01:55:35;98466.91;;;2.06;100.00
40315;BME280;26021;45.640;11.302;2022-12-07T01:58:03;98468.31;;;2.10;100.00
40315;BME280;26021;45.640;11.302;2022-12-07T02:00:29;98463.31;;;2.07;100.00
40315;BME280;26021;45.640;11.302;2022-12-07T02:03:10;98457.59;;;2.02;100.00
40315;BME280;26021;45.640;11.302;2022-12-07T02:05:40;98454.16;;;2.11;100.00
40315;BME280;26021;45.640;11.302;2022-12-07T02:08:07;98458.84;;;2.07;100.00
40315;BME280;26021;45.640;11.302;2022-12-07T02:10:33;98452.63;;;2.08;100.00
40315;BME280;26021;45.640;11.302;2022-12-07T02:13:23;98457.09;;;2.17;100.00
40315;BME280;26021;45.640;11.302;2022-12-07T02:18:55;98460.06;;;2.24;100.00
40315;BME280;26021;45.640;11.302;2022-12-07T02:30:08;98374.25;;;1.49;100.00
40315;BME280;26021;45.640;11.302;2022-12-07T02:33:07;98456.28;;;1.86;100.00
40315;BME280;26021;45.640;11.302;2022-12-07T02:41:35;98444.22;;;2.24;100.00
40315;BME280;26021;45.640;11.302;2022-12-07T02:43:44;98440.94;;;2.01;100.00
40315;BME280;26021;45.640;11.302;2022-12-07T02:46:14;98427.78;;;2.20;100.00
40315;BME280;26021;45.640;11.302;2022-12-07T02:48:43;98434.38;;;1.96;100.00
40315;BME280;26021;45.640;11.302;2022-12-07T02:51:08;98446.78;;;2.05;100.00
40315;BME280;26021;45.640;11.302;2022-12-07T02:53:39;98442.56;;;1.92;100.00
40315;BME280;26021;45.640;11.302;2022-12-07T03:10:33;98444.78;;;1.97;100.00
40315;BME280;26021;45.640;11.302;2022-12-07T03:16:04;98446.16;;;1.91;100.00
40315;BME280;26021;45.640;11.302;2022-12-07T03:18:35;98443.16;;;2.06;100.00
40315;BME280;26021;45.640;11.302;2022-12-07T03:21:06;98447.50;;;2.16;100.00
40315;BME280;26021;45.640;11.302;2022-12-07T03:23:35;98446.91;;;2.03;100.00
40315;BME280;26021;45.640;11.302;2022-12-07T03:26:04;98446.06;;;2.03;100.00
40315;BME280;26021;45.640;11.302;2022-12-07T03:28:35;98360.00;;;1.62;100.00
40315;BME280;26021;45.640;11.302;2022-12-07T03:31:10;98439.22;;;1.90;100.00
40315;BME280;26021;45.640;11.302;2022-12-07T03:36:30;98362.13;;;1.47;100.00
40315;BME280;26021;45.640;11.302;2022-12-07T03:39:06;98434.25;;;1.97;100.00
40315;BME280;26021;45.640;11.302;2022-12-07T03:41:36;98438.31;;;2.11;100.00
40315;BME280;26021;45.640;11.302;2022-12-07T03:44:03;98428.94;;;1.87;100.00
40315;BME280;26021;45.640;11.302;2022-12-07T03:46:49;98199.00;;;0.43;100.00
40315;BME280;26021;45.640;11.302;2022-12-07T03:49:18;98424.50;;;1.88;100.00
40315;BME280;26021;45.640;11.302;2022-12-07T03:52:27;98437.38;;;1.81;100.00
40315;BME280;26021;45.640;11.302;2022-12-07T03:55:17;98427.97;;;1.88;100.00
40315;BME280;26021;45.640;11.302;2022-12-07T03:57:45;98423.13;;;1.63;100.00
40315;BME280;26021;45.640;11.302;2022-12-07T04:00:13;98426.03;;;1.90;100.00
40315;BME280;26021;45.640;11.302;2022-12-07T04:02:39;98420.94;;;1.68;100.00
40315;BME280;26021;45.640;11.302;2022-12-07T04:05:05;98375.69;;;1.42;100.00
40315;BME280;26021;45.640;11.302;2022-12-07T04:07:31;98370.09;;;1.56;100.00
40315;BME280;26021;45.640;11.302;2022-12-07T04:09:57;98412.53;;;1.84;100.00
40315;BME280;26021;45.640;11.302;2022-12-07T04:12:23;98425.91;;;1.92;100.00
40315;BME280;26021;45.640;11.302;2022-12-07T04:14:48;98227.41;;;0.70;100.00
40315;BME280;26021;45.640;11.302;2022-12-07T04:17:14;98365.56;;;1.38;100.00
40315;BME280;26021;45.640;11.302;2022-12-07T04:19:39;98415.31;;;1.82;100.00
40315;BME280;26021;45.640;11.302;2022-12-07T04:22:05;98413.06;;;1.78;100.00
40315;BME280;26021;45.640;11.302;2022-12-07T04:24:31;98408.31;;;1.72;100.00
40315;BME280;26021;45.640;11.302;2022-12-07T04:26:57;98407.66;;;1.79;100.00
40315;BME280;26021;45.640;11.302;2022-12-07T04:29:23;98413.38;;;1.84;100.00
40315;BME280;26021;45.640;11.302;2022-12-07T04:31:49;98336.09;;;1.23;100.00
40315;BME280;26021;45.640;11.302;2022-12-07T04:34:16;98409.50;;;1.88;100.00
40315;BME280;26021;45.640;11.302;2022-12-07T04:36:42;98357.72;;;1.26;100.00
40315;BME280;26021;45.640;11.302;2022-12-07T04:39:17;98406.94;;;1.47;100.00
40315;BME280;26021;45.640;11.302;2022-12-07T04:41:44;98381.19;;;1.50;100.00
40315;BME280;26021;45.640;11.302;2022-12-07T04:44:09;98405.44;;;1.75;100.00
40315;BME280;26021;45.640;11.302;2022-12-07T04:46:35;98402.94;;;1.73;100.00
40315;BME280;26021;45.640;11.302;2022-12-07T04:49:00;98377.78;;;1.69;100.00
40315;BME280;26021;45.640;11.302;2022-12-07T04:51:27;98404.16;;;1.69;100.00
40315;BME280;26021;45.640;11.302;2022-12-07T04:53:54;98402.97;;;1.83;100.00
40315;BME280;26021;45.640;11.302;2022-12-07T04:56:20;98406.66;;;1.71;100.00
40315;BME280;26021;45.640;11.302;2022-12-07T04:58:47;98407.66;;;1.79;100.00
40315;BME280;26021;45.640;11.302;2022-12-07T05:01:13;98368.88;;;1.61;100.00
40315;BME280;26021;45.640;11.302;2022-12-07T05:03:39;98409.59;;;1.77;100.00
40315;BME280;26021;45.640;11.302;2022-12-07T05:06:05;98397.94;;;1.80;100.00
40315;BME280;26021;45.640;11.302;2022-12-07T05:08:32;98402.09;;;1.73;100.00
40315;BME280;26021;45.640;11.302;2022-12-07T05:10:58;98404.69;;;1.63;100.00
40315;BME280;26021;45.640;11.302;2022-12-07T05:13:24;98402.84;;;1.54;100.00
40315;BME280;26021;45.640;11.302;2022-12-07T05:15:49;98394.03;;;1.74;100.00
40315;BME280;26021;45.640;11.302;2022-12-07T05:18:15;98345.81;;;1.53;100.00
40315;BME280;26021;45.640;11.302;2022-12-07T05:20:41;98387.91;;;1.64;100.00
40315;BME280;26021;45.640;11.302;2022-12-07T05:23:07;98393.25;;;1.83;100.00
40315;BME280;26021;45.640;11.302;2022-12-07T05:25:33;98391.31;;;1.85;100.00
40315;BME280;26021;45.640;11.302;2022-12-07T05:27:58;98386.88;;;1.86;100.00
40315;BME280;26021;45.640;11.302;2022-12-07T05:30:24;98377.50;;;1.63;100.00
40315;BME280;26021;45.640;11.302;2022-12-07T05:32:50;98378.84;;;1.57;100.00
40315;BME280;26021;45.640;11.302;2022-12-07T05:35:17;98385.44;;;1.72;100.00
40315;BME280;26021;45.640;11.302;2022-12-07T05:37:43;98385.16;;;1.75;100.00
40315;BME280;26021;45.640;11.302;2022-12-07T05:40:09;98380.13;;;1.63;100.00
40315;BME280;26021;45.640;11.302;2022-12-07T05:42:35;98326.34;;;1.44;100.00
40315;BME280;26021;45.640;11.302;2022-12-07T05:45:00;98382.53;;;1.75;100.00
40315;BME280;26021;45.640;11.302;2022-12-07T05:47:26;98383.13;;;1.88;100.00
40315;BME280;26021;45.640;11.302;2022-12-07T05:49:51;98348.06;;;1.57;100.00
40315;BME280;26021;45.640;11.302;2022-12-07T05:52:17;98375.94;;;1.90;100.00
40315;BME280;26021;45.640;11.302;2022-12-07T05:54:43;98378.72;;;1.99;100.00
40315;BME280;26021;45.640;11.302;2022-12-07T05:57:08;98373.25;;;1.81;100.00
40315;BME280;26021;45.640;11.302;2022-12-07T05:59:33;98376.59;;;1.83;100.00
40315;BME280;26021;45.640;11.302;2022-12-07T06:02:06;98156.00;;;0.32;100.00
40315;BME280;26021;45.640;11.302;2022-12-07T06:04:37;98382.50;;;1.66;100.00
40315;BME280;26021;45.640;11.302;2022-12-07T06:07:03;98378.31;;;1.63;100.00
40315;BME280;26021;45.640;11.302;2022-12-07T06:09:29;98385.16;;;1.75;100.00
40315;BME280;26021;45.640;11.302;2022-12-07T06:11:56;98392.16;;;1.55;100.00
40315;BME280;26021;45.640;11.302;2022-12-07T06:14:40;98388.56;;;1.56;100.00
40315;BME280;26021;45.640;11.302;2022-12-07T06:17:06;98388.03;;;1.63;100.00
40315;BME280;26021;45.640;11.302;2022-12-07T06:19:32;98364.47;;;1.40;100.00
40315;BME280;26021;45.640;11.302;2022-12-07T06:21:58;98390.97;;;1.69;100.00
40315;BME280;26021;45.640;11.302;2022-12-07T06:24:24;98399.88;;;1.78;100.00
40315;BME280;26021;45.640;11.302;2022-12-07T06:26:51;98398.28;;;1.96;100.00
40315;BME280;26021;45.640;11.302;2022-12-07T06:29:17;98402.06;;;2.03;100.00
40315;BME280;26021;45.640;11.302;2022-12-07T06:31:43;98233.34;;;0.92;100.00
40315;BME280;26021;45.640;11.302;2022-12-07T06:34:11;98394.75;;;1.76;100.00
40315;BME280;26021;45.640;11.302;2022-12-07T06:36:37;98399.59;;;1.71;100.00
40315;BME280;26021;45.640;11.302;2022-12-07T06:39:03;98200.53;;;0.45;100.00
40315;BME280;26021;45.640;11.302;2022-12-07T06:41:29;98398.69;;;1.91;100.00
40315;BME280;26021;45.640;11.302;2022-12-07T06:43:55;98386.63;;;1.58;100.00
40315;BME280;26021;45.640;11.302;2022-12-07T06:46:20;98411.28;;;1.78;100.00
40315;BME280;26021;45.640;11.302;2022-12-07T06:48:46;98404.31;;;1.77;100.00
40315;BME280;26021;45.640;11.302;2022-12-07T06:51:11;98410.44;;;1.78;100.00
40315;BME280;26021;45.640;11.302;2022-12-07T06:53:37;98407.16;;;1.55;100.00
40315;BME280;26021;45.640;11.302;2022-12-07T06:56:03;98397.88;;;1.61;100.00
40315;BME280;26021;45.640;11.302;2022-12-07T06:58:29;98388.03;;;1.63;100.00
40315;BME280;26021;45.640;11.302;2022-12-07T07:00:55;98399.50;;;1.82;100.00
40315;BME280;26021;45.640;11.302;2022-12-07T07:03:20;98401.47;;;1.90;100.00
40315;BME280;26021;45.640;11.302;2022-12-07T07:05:46;98402.97;;;1.83;100.00
40315;BME280;26021;45.640;11.302;2022-12-07T07:08:12;98406.25;;;1.75;100.00
40315;BME280;26021;45.640;11.302;2022-12-07T07:10:38;98383.06;;;1.48;100.00
40315;BME280;26021;45.640;11.302;2022-12-07T07:13:03;98358.03;;;1.33;100.00
40315;BME280;26021;45.640;11.302;2022-12-07T07:15:29;98394.00;;;1.65;100.00
40315;BME280;26021;45.640;11.302;2022-12-07T07:17:55;98411.53;;;1.75;100.00
40315;BME280;26021;45.640;11.302;2022-12-07T07:20:20;98416.19;;;1.92;100.00
40315;BME280;26021;45.640;11.302;2022-12-07T07:22:46;98384.66;;;1.91;100.00
40315;BME280;26021;45.640;11.302;2022-12-07T07:25:11;98422.88;;;1.97;100.00
40315;BME280;26021;45.640;11.302;2022-12-07T07:27:37;98386.72;;;1.78;100.00
40315;BME280;26021;45.640;11.302;2022-12-07T07:30:04;98415.78;;;1.97;100.00
40315;BME280;26021;45.640;11.302;2022-12-07T07:32:29;98380.88;;;1.74;100.00
40315;BME280;26021;45.640;11.302;2022-12-07T07:34:55;98424.56;;;2.07;100.00
40315;BME280;26021;45.640;11.302;2022-12-07T07:37:20;98396.13;;;2.11;100.00
40315;BME280;26021;45.640;11.302;2022-12-07T07:39:46;98428.16;;;2.46;100.00
40315;BME280;26021;45.640;11.302;2022-12-07T07:42:11;98429.31;;;2.73;100.00
40315;BME280;26021;45.640;11.302;2022-12-07T07:44:37;98431.13;;;2.72;100.00
40315;BME280;26021;45.640;11.302;2022-12-07T07:47:03;98402.50;;;2.68;100.00
40315;BME280;26021;45.640;11.302;2022-12-07T07:49:29;98346.06;;;2.49;100.00
40315;BME280;26021;45.640;11.302;2022-12-07T07:51:54;98429.91;;;3.05;100.00
40315;BME280;26021;45.640;11.302;2022-12-07T07:54:19;98431.00;;;3.32;100.00
40315;BME280;26021;45.640;11.302;2022-12-07T07:56:45;98427.78;;;3.38;100.00
40315;BME280;26021;45.640;11.302;2022-12-07T07:59:10;98383.03;;;3.07;100.00
40315;BME280;26021;45.640;11.302;2022-12-07T08:01:36;98420.53;;;3.49;100.00
40315;BME280;26021;45.640;11.302;2022-12-07T08:04:01;98422.00;;;3.62;100.00
40315;BME280;26021;45.640;11.302;2022-12-07T08:06:26;98424.19;;;3.86;100.00
40315;BME280;26021;45.640;11.302;2022-12-07T08:08:52;98426.94;;;3.94;100.00
40315;BME280;26021;45.640;11.302;2022-12-07T08:11:18;98435.00;;;4.02;100.00
40315;BME280;26021;45.640;11.302;2022-12-07T08:13:46;98437.19;;;4.06;100.00
40315;BME280;26021;45.640;11.302;2022-12-07T08:16:14;98388.28;;;4.10;100.00
40315;BME280;26021;45.640;11.302;2022-12-07T08:18:41;98438.34;;;4.59;100.00
40315;BME280;26021;45.640;11.302;2022-12-07T08:21:08;98380.50;;;4.09;100.00
40315;BME280;26021;45.640;11.302;2022-12-07T08:23:35;98448.72;;;4.70;100.00
40315;BME280;26021;45.640;11.302;2022-12-07T08:26:02;98451.47;;;4.78;100.00
40315;BME280;26021;45.640;11.302;2022-12-07T08:28:28;98452.06;;;4.72;100.00
40315;BME280;26021;45.640;11.302;2022-12-07T08:31:06;98442.00;;;4.75;100.00
40315;BME280;26021;45.640;11.302;2022-12-07T08:33:33;98445.94;;;4.89;100.00
40315;BME280;26021;45.640;11.302;2022-12-07T08:36:03;98434.88;;;4.94;100.00
40315;BME280;26021;45.640;11.302;2022-12-07T08:38:29;98403.25;;;4.74;100.00
40315;BME280;26021;45.640;11.302;2022-12-07T08:40:55;98444.19;;;5.16;100.00
40315;BME280;26021;45.640;11.302;2022-12-07T08:43:21;98439.97;;;5.05;100.00
40315;BME280;26021;45.640;11.302;2022-12-07T08:45:49;98446.56;;;5.36;100.00
40315;BME280;26021;45.640;11.302;2022-12-07T08:48:17;98439.84;;;5.50;100.00
40315;BME280;26021;45.640;11.302;2022-12-07T08:50:47;98434.50;;;5.42;100.00
40315;BME280;26021;45.640;11.302;2022-12-07T08:53:13;98440.63;;;5.42;100.00
40315;BME280;26021;45.640;11.302;2022-12-07T08:55:39;98439.03;;;5.50;100.00
40315;BME280;26021;45.640;11.302;2022-12-07T08:58:04;98437.53;;;5.73;100.00
40315;BME280;26021;45.640;11.302;2022-12-07T09:00:30;98383.53;;;5.56;100.00
40315;BME280;26021;45.640;11.302;2022-12-07T09:02:55;98399.66;;;5.63;100.00
40315;BME280;26021;45.640;11.302;2022-12-07T09:05:21;98441.81;;;6.18;100.00
40315;BME280;26021;45.640;11.302;2022-12-07T09:07:49;98440.31;;;6.15;100.00
40315;BME280;26021;45.640;11.302;2022-12-07T09:10:15;98444.44;;;6.10;100.00
40315;BME280;26021;45.640;11.302;2022-12-07T09:12:41;98392.47;;;5.81;100.00
40315;BME280;26021;45.640;11.302;2022-12-07T09:15:07;98407.53;;;5.98;100.00
40315;BME280;26021;45.640;11.302;2022-12-07T09:17:34;98448.50;;;6.30;100.00
40315;BME280;26021;45.640;11.302;2022-12-07T09:20:00;98448.28;;;6.57;100.00
40315;BME280;26021;45.640;11.302;2022-12-07T09:22:31;98441.63;;;6.53;100.00
40315;BME280;26021;45.640;11.302;2022-12-07T09:24:58;98445.13;;;6.62;100.00
40315;BME280;26021;45.640;11.302;2022-12-07T09:27:24;98440.47;;;6.64;100.00
40315;BME280;26021;45.640;11.302;2022-12-07T09:29:49;98439.97;;;6.60;100.00
40315;BME280;26021;45.640;11.302;2022-12-07T09:32:15;98436.47;;;6.52;100.00
40315;BME280;26021;45.640;11.302;2022-12-07T09:34:40;98434.00;;;6.66;100.00
40315;BME280;26021;45.640;11.302;2022-12-07T09:37:05;98433.41;;;6.81;100.00
40315;BME280;26021;45.640;11.302;2022-12-07T09:39:31;98436.25;;;6.87;100.00
40315;BME280;26021;45.640;11.302;2022-12-07T09:41:57;98388.22;;;6.73;100.00
40315;BME280;26021;45.640;11.302;2022-12-07T09:44:25;98371.44;;;6.72;100.00
40315;BME280;26021;45.640;11.302;2022-12-07T09:46:52;98401.69;;;7.12;100.00
40315;BME280;26021;45.640;11.302;2022-12-07T09:49:23;98431.28;;;7.33;100.00
40315;BME280;26021;45.640;11.302;2022-12-07T09:52:03;98427.13;;;7.30;100.00
40315;BME280;26021;45.640;11.302;2022-12-07T09:54:46;98375.78;;;7.06;100.00
40315;BME280;26021;45.640;11.302;2022-12-07T09:57:12;98166.06;;;5.89;100.00
40315;BME280;26021;45.640;11.302;2022-12-07T09:59:39;98421.66;;;7.64;100.00
40315;BME280;26021;45.640;11.302;2022-12-07T10:04:57;98415.81;;;7.69;100.00
40315;BME280;26021;45.640;11.302;2022-12-07T10:07:23;98341.84;;;7.48;100.00
40315;BME280;26021;45.640;11.302;2022-12-07T10:09:49;98355.47;;;7.53;100.00
40315;BME280;26021;45.640;11.302;2022-12-07T10:12:14;98406.78;;;7.94;100.00
40315;BME280;26021;45.640;11.302;2022-12-07T10:20:28;98347.09;;;7.81;100.00
40315;BME280;26021;45.640;11.302;2022-12-07T10:23:05;98377.59;;;8.09;100.00
40315;BME280;26021;45.640;11.302;2022-12-07T10:25:33;98402.19;;;8.36;100.00
40315;BME280;26021;45.640;11.302;2022-12-07T10:33:44;98390.56;;;8.59;100.00
40315;BME280;26021;45.640;11.302;2022-12-07T10:39:11;98392.09;;;8.54;100.00
40315;BME280;26021;45.640;11.302;2022-12-07T10:42:02;98392.88;;;8.63;100.00
40315;BME280;26021;45.640;11.302;2022-12-07T10:44:30;98389.34;;;8.70;100.00
40315;BME280;26021;45.640;11.302;2022-12-07T10:47:12;98388.75;;;8.83;100.00
40315;BME280;26021;45.640;11.302;2022-12-07T10:52:54;98376.38;;;8.90;100.00
40315;BME280;26021;45.640;11.302;2022-12-07T10:55:29;98318.66;;;8.74;100.00
40315;BME280;26021;45.640;11.302;2022-12-07T10:58:03;98370.34;;;9.19;100.00
40315;BME280;26021;45.640;11.302;2022-12-07T11:00:58;98364.47;;;9.23;100.00
40315;BME280;26021;45.640;11.302;2022-12-07T11:11:26;98358.50;;;9.36;99.67
40315;BME280;26021;45.640;11.302;2022-12-07T11:14:44;98355.22;;;9.49;98.97
40315;BME280;26021;45.640;11.302;2022-12-07T11:16:58;98353.28;;;9.57;96.57
40315;BME280;26021;45.640;11.302;2022-12-07T11:22:16;98344.72;;;9.62;96.61
40315;BME280;26021;45.640;11.302;2022-12-07T11:24:53;98346.75;;;9.60;94.68
40315;BME280;26021;45.640;11.302;2022-12-07T11:27:23;98333.78;;;9.57;92.41
40315;BME280;26021;45.640;11.302;2022-12-07T11:35:01;98325.59;;;9.59;91.51
40315;BME280;26021;45.640;11.302;2022-12-07T11:37:31;98327.47;;;9.73;91.16
40315;BME280;26021;45.640;11.302;2022-12-07T11:42:33;98317.34;;;9.68;91.74
40315;BME280;26021;45.640;11.302;2022-12-07T11:50:03;98311.25;;;9.89;89.77
40315;BME280;26021;45.640;11.302;2022-12-07T11:52:33;98316.59;;;9.89;89.79
40315;BME280;26021;45.640;11.302;2022-12-07T11:55:06;98311.97;;;9.83;89.57
40315;BME280;26021;45.640;11.302;2022-12-07T11:57:40;98313.19;;;9.80;89.21
40315;BME280;26021;45.640;11.302;2022-12-07T12:00:14;98308.84;;;9.79;89.71
40315;BME280;26021;45.640;11.302;2022-12-07T12:05:18;98303.22;;;10.04;88.14
40315;BME280;26021;45.640;11.302;2022-12-07T12:07:44;98297.75;;;10.12;85.38
40315;BME280;26021;45.640;11.302;2022-12-07T12:12:58;98298.53;;;9.91;85.63
40315;BME280;26021;45.640;11.302;2022-12-07T12:15:38;98299.06;;;10.01;86.03
40315;BME280;26021;45.640;11.302;2022-12-07T12:18:11;98294.00;;;10.06;84.20
40315;BME280;26021;45.640;11.302;2022-12-07T12:23:13;98293.66;;;9.80;85.03
40315;BME280;26021;45.640;11.302;2022-12-07T12:25:57;98287.09;;;9.97;84.03
40315;BME280;26021;45.640;11.302;2022-12-07T12:28:26;98289.22;;;9.87;84.96
40315;BME280;26021;45.640;11.302;2022-12-07T12:31:07;98284.97;;;10.07;85.34
40315;BME280;26021;45.640;11.302;2022-12-07T12:33:34;98295.66;;;10.22;83.73
40315;BME280;26021;45.640;11.302;2022-12-07T12:41:11;98280.31;;;10.45;83.52
40315;BME280;26021;45.640;11.302;2022-12-07T12:43:56;98285.00;;;10.43;84.22
40315;BME280;26021;45.640;11.302;2022-12-07T12:51:41;98273.38;;;10.51;86.22
40315;BME280;26021;45.640;11.302;2022-12-07T12:54:56;98272.56;;;10.36;85.09
40315;BME280;26021;45.640;11.302;2022-12-07T12:59:42;98280.72;;;10.13;86.01
40315;BME280;26021;45.640;11.302;2022-12-07T13:10:20;98278.13;;;10.19;88.37
40315;BME280;26021;45.640;11.302;2022-12-07T13:15:36;98277.13;;;10.06;85.24
40315;BME280;26021;45.640;11.302;2022-12-07T13:18:48;98271.16;;;10.04;87.18
40315;BME280;26021;45.640;11.302;2022-12-07T13:20:49;98266.75;;;9.96;88.67
40315;BME280;26021;45.640;11.302;2022-12-07T13:23:19;98263.25;;;9.96;88.98
40315;BME280;26021;45.640;11.302;2022-12-07T13:28:32;98258.28;;;9.93;90.88
40315;BME280;26021;45.640;11.302;2022-12-07T13:33:23;98262.16;;;9.75;91.00
40315;BME280;26021;45.640;11.302;2022-12-07T13:35:53;98258.47;;;9.76;90.50
40315;BME280;26021;45.640;11.302;2022-12-07T13:38:27;98261.25;;;9.68;91.51
40315;BME280;26021;45.640;11.302;2022-12-07T13:41:00;98256.16;;;9.59;91.01
40315;BME280;26021;45.640;11.302;2022-12-07T13:43:25;98264.00;;;9.60;90.50
40315;BME280;26021;45.640;11.302;2022-12-07T13:45:55;98265.47;;;9.48;92.61
40315;BME280;26021;45.640;11.302;2022-12-07T13:48:31;98259.56;;;9.38;94.73
40315;BME280;26021;45.640;11.302;2022-12-07T13:50:58;98262.06;;;9.24;95.08
40315;BME280;26021;45.640;11.302;2022-12-07T13:53:24;98274.63;;;9.01;98.51
40315;BME280;26021;45.640;11.302;2022-12-07T13:55:53;98271.41;;;8.83;99.78
40315;BME280;26021;45.640;11.302;2022-12-07T13:58:18;98268.25;;;8.65;100.00
40315;BME280;26021;45.640;11.302;2022-12-07T14:00:43;98270.09;;;8.41;100.00
40315;BME280;26021;45.640;11.302;2022-12-07T14:05:37;98265.53;;;8.19;100.00
40315;BME280;26021;45.640;11.302;2022-12-07T14:10:32;98269.22;;;8.18;100.00
40315;BME280;26021;45.640;11.302;2022-12-07T14:12:59;98265.63;;;8.34;100.00
40315;BME280;26021;45.640;11.302;2022-12-07T14:15:27;98269.16;;;8.26;100.00
40315;BME280;26021;45.640;11.302;2022-12-07T14:17:54;98265.69;;;8.17;100.00
40315;BME280;26021;45.640;11.302;2022-12-07T14:20:33;98272.19;;;8.15;100.00
40315;BME280;26021;45.640;11.302;2022-12-07T14:22:58;98277.25;;;8.02;100.00
40315;BME280;26021;45.640;11.302;2022-12-07T14:25:25;98280.78;;;7.94;100.00
40315;BME280;26021;45.640;11.302;2022-12-07T14:27:55;98273.16;;;7.91;100.00
40315;BME280;26021;45.640;11.302;2022-12-07T14:30:22;98274.25;;;7.65;100.00
40315;BME280;26021;45.640;11.302;2022-12-07T14:32:48;98277.97;;;7.56;100.00
40315;BME280;26021;45.640;11.302;2022-12-07T14:35:16;98277.66;;;7.35;100.00
40315;BME280;26021;45.640;11.302;2022-12-07T14:37:42;98277.69;;;7.19;100.00
40315;BME280;26021;45.640;11.302;2022-12-07T14:40:12;98277.38;;;7.22;100.00
40315;BME280;26021;45.640;11.302;2022-12-07T14:42:37;98274.22;;;7.18;100.00
40315;BME280;26021;45.640;11.302;2022-12-07T14:45:05;98276.41;;;7.07;100.00
40315;BME280;26021;45.640;11.302;2022-12-07T14:47:30;98286.38;;;7.05;100.00
40315;BME280;26021;45.640;11.302;2022-12-07T14:49:56;98278.06;;;6.91;100.00
40315;BME280;26021;45.640;11.302;2022-12-07T14:52:28;98283.91;;;6.87;100.00
40315;BME280;26021;45.640;11.302;2022-12-07T14:54:53;98284.41;;;6.82;100.00
40315;BME280;26021;45.640;11.302;2022-12-07T14:57:19;98287.38;;;6.79;100.00
40315;BME280;26021;45.640;11.302;2022-12-07T14:59:44;98292.03;;;6.69;100.00
40315;BME280;26021;45.640;11.302;2022-12-07T15:02:11;98294.81;;;6.43;100.00